Terminal Aerodrome Forecast
Issued by NWS Louisville, KY

Home | Current Version | Previous Version | Text Only | Print | Product List | Glossary On
Versions: 1 2 3 4 5 6 7 8 9 10 11 12 13 14 15 16
089
FTUS43 KLMK 231738
TAFBWG
TAF
KBWG 231738Z 2318/2418 19012G20KT 4SM SHRA VCTS BKN025CB OVC040
      TEMPO 2318/2322 2SM +SHRA BKN015
     FM232300 26007KT P6SM VCSH BKN025
     FM240100 28006KT 6SM -SHRA VCTS BKN030CB
     FM240400 29006KT P6SM OVC045=

USA.gov is the U.S. government's official web portal to all federal, state and local government web resources and services.